createdAt,value
2022-09-07T00:00:25.263Z,10.85
2022-09-07T00:02:57.325Z,10.43
2022-09-07T00:05:30.372Z,12.50
2022-09-07T00:08:02.737Z,9.23
2022-09-07T00:10:34.793Z,10.68
2022-09-07T00:13:07.859Z,13.27
2022-09-07T00:15:40.537Z,10.18
2022-09-07T00:18:12.521Z,12.65
2022-09-07T00:20:44.747Z,9.50
2022-09-07T00:23:16.700Z,8.20
2022-09-07T00:25:53.515Z,11.95
2022-09-07T00:28:26.082Z,11.88
2022-09-07T00:30:58.576Z,8.25
2022-09-07T00:33:30.962Z,7.82
2022-09-07T00:36:03.178Z,9.10
2022-09-07T00:38:35.986Z,10.07
2022-09-07T00:41:08.030Z,11.40
2022-09-07T00:43:53.535Z,9.35
2022-09-07T00:46:34.232Z,11.35
2022-09-07T00:49:21.150Z,9.45
2022-09-07T00:51:59.141Z,8.35
2022-09-07T00:54:45.849Z,10.32
2022-09-07T00:57:17.902Z,11.13
2022-09-07T00:59:53.086Z,11.00
2022-09-07T01:02:26.763Z,9.75
2022-09-07T01:05:13.726Z,8.32
2022-09-07T01:07:46.921Z,9.10
2022-09-07T01:10:19.607Z,7.78
2022-09-07T01:12:51.980Z,10.32
2022-09-07T01:15:46.562Z,10.63
2022-09-07T01:18:24.241Z,9.02
2022-09-07T01:21:23.797Z,11.55
2022-09-07T01:24:17.368Z,12.40
2022-09-07T01:27:47.017Z,10.25
2022-09-07T01:30:21.410Z,13.40
2022-09-07T01:33:23.173Z,10.48
2022-09-07T01:36:33.855Z,10.80
2022-09-07T01:39:06.670Z,9.00
2022-09-07T01:41:58.977Z,9.60
2022-09-07T01:44:48.462Z,9.90
2022-09-07T01:47:20.431Z,11.90
2022-09-07T01:50:19.625Z,11.35
2022-09-07T01:53:00.956Z,10.02
2022-09-07T01:56:04.135Z,10.43
2022-09-07T01:58:45.206Z,9.80
2022-09-07T02:02:04.193Z,10.00
2022-09-07T02:04:59.711Z,10.98
2022-09-07T02:07:59.787Z,7.88
2022-09-07T02:10:41.871Z,12.23
2022-09-07T02:13:19.861Z,10.13
2022-09-07T02:15:59.131Z,8.82
2022-09-07T02:18:42.931Z,10.40
2022-09-07T02:21:22.049Z,8.98
2022-09-07T02:24:05.389Z,11.38
2022-09-07T02:26:40.969Z,10.15
2022-09-07T02:29:12.945Z,13.35
2022-09-07T02:31:45.211Z,11.32
2022-09-07T02:34:17.331Z,18.35
2022-09-07T02:36:51.576Z,8.45
2022-09-07T02:39:23.553Z,10.15
2022-09-07T02:41:55.629Z,10.88
2022-09-07T02:44:34.837Z,11.90
2022-09-07T02:47:37.829Z,11.98
2022-09-07T02:51:02.941Z,12.18
2022-09-07T02:54:14.644Z,9.45
2022-09-07T02:57:37.680Z,18.77
2022-09-07T03:00:19.258Z,11.07
2022-09-07T03:03:15.301Z,11.63
2022-09-07T03:05:55.990Z,11.07
2022-09-07T03:08:51.638Z,12.48
2022-09-07T03:11:24.043Z,17.35
2022-09-07T03:14:33.794Z,17.63
2022-09-07T03:17:05.950Z,14.35
2022-09-07T03:19:38.057Z,11.73
2022-09-07T03:22:10.095Z,15.35
2022-09-07T03:24:43.354Z,11.70
2022-09-07T03:27:15.347Z,14.73
2022-09-07T03:29:47.328Z,23.35
2022-09-07T03:32:19.361Z,17.52
2022-09-07T03:34:52.328Z,14.52
2022-09-07T03:37:24.845Z,13.38
2022-09-07T03:39:57.301Z,14.25
2022-09-07T03:42:29.402Z,15.65
2022-09-07T03:45:01.590Z,16.83
2022-09-07T03:47:40.674Z,16.40
2022-09-07T03:50:12.611Z,20.98
2022-09-07T03:52:44.658Z,18.50
2022-09-07T03:55:16.746Z,16.40
2022-09-07T03:57:48.734Z,19.27
2022-09-07T04:00:20.778Z,17.50
2022-09-07T04:02:52.856Z,20.65
2022-09-07T04:05:24.880Z,29.15
2022-09-07T04:07:56.848Z,19.35
2022-09-07T04:10:28.834Z,18.77
2022-09-07T04:13:00.882Z,19.98
2022-09-07T04:15:33.333Z,20.88
2022-09-07T04:18:05.480Z,18.63
2022-09-07T04:20:37.486Z,17.30
2022-09-07T04:23:09.489Z,20.67
2022-09-07T04:25:52.275Z,18.90
2022-09-07T04:28:24.409Z,20.50
2022-09-07T04:31:00.421Z,22.90
2022-09-07T04:33:32.955Z,18.42
2022-09-07T04:36:05.422Z,21.83
2022-09-07T04:38:39.984Z,19.45
2022-09-07T04:41:19.087Z,18.08
2022-09-07T04:43:59.695Z,16.02
2022-09-07T04:46:37.117Z,20.48
2022-09-07T04:49:12.107Z,24.35
2022-09-07T04:51:44.452Z,18.98
2022-09-07T04:54:16.536Z,21.15
2022-09-07T04:56:48.510Z,17.35
2022-09-07T04:59:20.598Z,20.10
2022-09-07T05:01:52.753Z,19.92
2022-09-07T05:04:24.765Z,19.75
2022-09-07T05:06:56.814Z,18.50
2022-09-07T05:09:28.904Z,24.27
2022-09-07T05:12:00.928Z,20.90
2022-09-07T05:14:32.887Z,18.27
2022-09-07T05:17:04.950Z,18.45
2022-09-07T05:19:36.986Z,17.02
2022-09-07T05:22:09.024Z,16.48
2022-09-07T05:24:41.054Z,19.40
2022-09-07T05:27:13.041Z,20.90
2022-09-07T05:32:32.574Z,17.90
2022-09-07T05:35:05.106Z,19.38
2022-09-07T05:37:37.129Z,23.63
2022-09-07T05:40:10.731Z,19.33
2022-09-07T05:42:42.757Z,21.77
2022-09-07T05:45:14.926Z,23.17
2022-09-07T05:47:50.814Z,24.98
2022-09-07T05:50:22.905Z,23.65
2022-09-07T05:52:54.871Z,25.00
2022-09-07T05:55:30.385Z,27.35
2022-09-07T05:58:02.801Z,23.95
2022-09-07T06:00:34.933Z,26.35
2022-09-07T06:03:07.297Z,24.08
2022-09-07T06:05:39.354Z,23.77
2022-09-07T06:08:11.305Z,22.60
2022-09-07T06:10:44.477Z,27.77
2022-09-07T06:13:16.779Z,25.73
2022-09-07T06:15:48.974Z,24.98
2022-09-07T06:18:20.950Z,25.00
2022-09-07T06:20:52.931Z,23.75
2022-09-07T06:23:24.935Z,29.55
2022-09-07T06:25:56.966Z,27.10
2022-09-07T06:28:41.427Z,28.92
2022-09-07T06:31:17.145Z,22.75
2022-09-07T06:33:50.232Z,24.98
2022-09-07T06:36:27.439Z,23.65
2022-09-07T06:39:01.763Z,23.85
2022-09-07T06:44:27.629Z,24.70
2022-09-07T06:47:02.766Z,28.40
2022-09-07T06:49:35.153Z,29.55
2022-09-07T06:52:07.189Z,34.28
2022-09-07T06:57:30.207Z,27.38
2022-09-07T07:00:02.457Z,26.52
2022-09-07T07:02:34.415Z,28.00
2022-09-07T07:05:06.800Z,29.45
2022-09-07T07:07:38.904Z,25.42
2022-09-07T07:10:10.986Z,27.42
2022-09-07T07:15:13.934Z,30.08
2022-09-07T07:17:49.127Z,27.75
2022-09-07T07:20:25.411Z,27.55
2022-09-07T07:22:57.387Z,30.88
2022-09-07T07:25:29.909Z,34.33
2022-09-07T07:31:00.713Z,29.20
2022-09-07T07:33:35.416Z,35.38
2022-09-07T07:36:27.180Z,29.95
2022-09-07T07:38:59.842Z,27.05
2022-09-07T07:44:24.876Z,30.98
2022-09-07T07:46:56.902Z,31.02
2022-09-07T07:49:28.911Z,23.35
2022-09-07T07:54:52.797Z,21.65
2022-09-07T07:57:24.713Z,25.67
2022-09-07T07:59:56.990Z,24.70
2022-09-07T08:02:28.979Z,25.42
2022-09-07T08:05:02.102Z,24.45
2022-09-07T08:07:34.066Z,21.65
2022-09-07T08:10:07.666Z,26.58
2022-09-07T08:12:40.202Z,27.83
2022-09-07T08:15:12.151Z,21.23
2022-09-07T08:17:45.678Z,21.67
2022-09-07T08:20:17.670Z,19.48
2022-09-07T08:22:52.834Z,23.02
2022-09-07T08:25:25.590Z,24.42
2022-09-07T08:27:57.506Z,21.20
2022-09-07T08:30:29.688Z,23.33
2022-09-07T08:33:01.622Z,19.80
2022-09-07T08:35:33.535Z,17.95
2022-09-07T08:38:05.467Z,16.98
2022-09-07T08:40:38.529Z,19.52
2022-09-07T08:43:35.096Z,25.35
2022-09-07T08:46:45.013Z,16.10
2022-09-07T08:49:26.283Z,12.90
2022-09-07T08:52:08.483Z,16.20
2022-09-07T08:54:47.470Z,17.63
2022-09-07T08:57:28.475Z,12.50
2022-09-07T09:00:14.394Z,13.65
2022-09-07T09:03:28.687Z,17.00
2022-09-07T09:06:04.588Z,16.17
2022-09-07T09:09:29.417Z,11.93
2022-09-07T09:12:37.457Z,13.68
2022-09-07T09:15:32.296Z,13.07
2022-09-07T09:18:29.498Z,10.00
2022-09-07T09:21:02.535Z,14.07
2022-09-07T09:23:42.160Z,12.48
2022-09-07T09:26:27.146Z,18.40
2022-09-07T09:29:15.320Z,13.80
2022-09-07T09:31:47.654Z,15.13
2022-09-07T09:34:23.737Z,8.07
2022-09-07T09:36:57.592Z,9.52
2022-09-07T09:39:36.876Z,8.15
2022-09-07T09:42:11.924Z,9.07
2022-09-07T09:44:45.570Z,7.70
2022-09-07T09:47:32.676Z,12.25
2022-09-07T09:54:06.132Z,7.55
2022-09-07T09:56:46.611Z,9.25
2022-09-07T10:05:38.141Z,8.85
2022-09-07T10:08:28.803Z,9.52
2022-09-07T10:11:05.705Z,4.25
2022-09-07T10:13:53.350Z,4.93
2022-09-07T10:16:41.834Z,7.78
2022-09-07T10:19:25.783Z,5.57
2022-09-07T10:22:00.579Z,6.45
2022-09-07T10:24:40.030Z,8.85
2022-09-07T10:27:35.721Z,7.20
2022-09-07T10:30:16.527Z,9.50
2022-09-07T10:33:02.672Z,9.05
2022-09-07T10:35:43.142Z,15.82
2022-09-07T10:38:25.071Z,6.07
2022-09-07T10:41:07.425Z,8.20
2022-09-07T10:43:47.394Z,9.68
2022-09-07T10:46:58.747Z,8.65
2022-09-07T10:50:21.857Z,8.05
2022-09-07T10:52:49.086Z,10.73
2022-09-07T10:55:33.179Z,6.88
2022-09-07T10:59:17.462Z,6.82
2022-09-07T11:02:10.384Z,8.65
2022-09-07T11:04:52.802Z,11.80
2022-09-07T11:08:08.694Z,7.13
2022-09-07T11:11:13.383Z,7.07
2022-09-07T11:14:11.454Z,5.70
2022-09-07T11:17:12.966Z,3.10
2022-09-07T11:20:02.202Z,2.70
2022-09-07T11:22:52.189Z,1.60
2022-09-07T11:25:34.145Z,1.77
2022-09-07T11:28:17.966Z,2.17
2022-09-07T11:31:06.820Z,2.58
2022-09-07T11:37:02.618Z,2.90
2022-09-07T11:39:55.361Z,1.75
2022-09-07T11:42:48.809Z,4.35
2022-09-07T11:45:31.881Z,3.22
2022-09-07T11:48:20.213Z,3.00
2022-09-07T11:51:24.820Z,3.10
2022-09-07T11:54:06.489Z,3.28
2022-09-07T11:56:45.570Z,4.32
2022-09-07T11:59:44.882Z,3.13
2022-09-07T12:02:57.780Z,5.00
2022-09-07T12:06:08.976Z,3.42
2022-09-07T12:09:04.956Z,3.72
2022-09-07T12:12:01.266Z,3.97
2022-09-07T12:15:32.344Z,7.07
2022-09-07T12:18:18.423Z,4.45
2022-09-07T12:20:50.761Z,5.07
2022-09-07T12:23:29.449Z,4.53
2022-09-07T12:26:38.280Z,5.15
2022-09-07T12:29:24.329Z,7.07
2022-09-07T12:32:52.354Z,4.55
2022-09-07T12:34:55.858Z,4.40
2022-09-07T12:37:27.850Z,3.72
2022-09-07T12:40:30.708Z,7.15
2022-09-07T12:43:14.690Z,5.72
2022-09-07T12:45:52.038Z,3.65
2022-09-07T12:48:39.571Z,3.65
2022-09-07T12:55:26.175Z,3.60
2022-09-07T12:58:41.710Z,6.38
2022-09-07T13:01:19.975Z,7.25
2022-09-07T13:04:12.864Z,3.17
2022-09-07T13:07:18.130Z,4.95
2022-09-07T13:09:58.951Z,5.55
2022-09-07T13:12:57.410Z,6.35
2022-09-07T13:15:41.831Z,2.88
2022-09-07T13:18:28.861Z,6.50
2022-09-07T13:21:09.930Z,3.42
2022-09-07T13:23:45.711Z,3.35
2022-09-07T13:26:55.118Z,6.35
2022-09-07T13:29:46.663Z,6.13
2022-09-07T13:35:29.474Z,5.68
2022-09-07T13:38:03.881Z,3.88
2022-09-07T13:40:39.853Z,15.88
2022-09-07T13:43:20.806Z,14.02
2022-09-07T13:45:55.690Z,26.85
2022-09-07T13:48:52.183Z,8.35
2022-09-07T13:51:40.651Z,4.32
2022-09-07T13:54:26.936Z,5.68
2022-09-07T13:57:28.663Z,7.65
2022-09-07T14:00:00.840Z,8.02
2022-09-07T14:02:34.746Z,2.75
2022-09-07T14:05:09.523Z,3.85
2022-09-07T14:07:48.498Z,5.68
2022-09-07T14:10:25.203Z,10.30
2022-09-07T14:13:12.907Z,7.45
2022-09-07T14:15:47.771Z,8.00
2022-09-07T14:18:33.035Z,7.95
2022-09-07T14:21:08.169Z,5.90
2022-09-07T14:23:41.683Z,8.57
2022-09-07T14:26:22.931Z,23.65
2022-09-07T14:28:56.817Z,10.90
2022-09-07T14:31:28.895Z,9.60
2022-09-07T14:34:01.457Z,10.85
2022-09-07T14:36:46.154Z,4.53
2022-09-07T14:39:21.371Z,6.03
2022-09-07T14:41:53.584Z,5.45
2022-09-07T14:44:32.303Z,3.92
2022-09-07T14:47:18.933Z,10.68
2022-09-07T14:49:52.782Z,6.00
2022-09-07T14:53:32.871Z,9.02
2022-09-07T14:55:42.830Z,9.88
2022-09-07T14:58:14.665Z,11.38
2022-09-07T15:04:19.225Z,6.45
2022-09-07T15:07:06.588Z,5.88
2022-09-07T15:09:39.009Z,13.63
2022-09-07T15:12:13.631Z,6.60
2022-09-07T15:14:47.562Z,8.75
2022-09-07T15:17:43.706Z,4.53
2022-09-07T15:20:48.563Z,7.68
2022-09-07T15:23:20.495Z,8.30
2022-09-07T15:25:54.157Z,10.05
2022-09-07T15:31:56.731Z,8.10
2022-09-07T15:34:21.877Z,8.90
2022-09-07T15:36:57.228Z,10.38
2022-09-07T15:39:30.361Z,12.63
2022-09-07T15:44:55.717Z,4.93
2022-09-07T15:47:47.279Z,7.68
2022-09-07T15:50:23.070Z,9.40
2022-09-07T15:52:55.498Z,8.60
2022-09-07T15:55:27.434Z,7.30
2022-09-07T15:58:10.997Z,4.45
2022-09-07T16:00:43.559Z,9.07
2022-09-07T16:03:15.900Z,7.95
2022-09-07T16:05:47.884Z,7.43
2022-09-07T16:08:27.553Z,7.80
2022-09-07T16:11:12.579Z,7.18
2022-09-07T16:13:48.155Z,5.95
2022-09-07T16:16:20.712Z,9.10
2022-09-07T16:18:53.711Z,6.68
2022-09-07T16:21:26.283Z,8.77
2022-09-07T16:23:58.635Z,6.63
2022-09-07T16:26:30.616Z,11.70
2022-09-07T16:29:03.602Z,8.30
2022-09-07T16:31:35.942Z,8.98
2022-09-07T16:34:08.183Z,6.93
2022-09-07T16:36:40.087Z,6.43
2022-09-07T16:39:12.027Z,6.03
2022-09-07T16:41:44.449Z,7.43
2022-09-07T16:44:16.932Z,7.55
2022-09-07T16:46:48.927Z,5.13
2022-09-07T16:49:21.119Z,6.72
2022-09-07T16:51:53.379Z,5.60
2022-09-07T16:54:25.297Z,5.13
2022-09-07T16:56:58.132Z,6.70
2022-09-07T16:59:30.093Z,6.57
2022-09-07T17:02:02.243Z,9.90
2022-09-07T17:04:34.306Z,6.13
2022-09-07T17:07:06.350Z,21.60
2022-09-07T17:09:41.139Z,13.43
2022-09-07T17:12:13.093Z,9.02
2022-09-07T17:14:45.034Z,7.53
2022-09-07T17:17:16.950Z,9.57
2022-09-07T17:19:49.088Z,7.07
2022-09-07T17:22:21.150Z,8.27
2022-09-07T17:24:53.115Z,10.10
2022-09-07T17:27:27.266Z,15.27
2022-09-07T17:29:59.496Z,12.68
2022-09-07T17:32:32.704Z,13.02
2022-09-07T17:35:05.279Z,7.90
2022-09-07T17:37:37.250Z,11.48
2022-09-07T17:40:09.876Z,8.57
2022-09-07T17:45:34.189Z,7.68
2022-09-07T17:48:06.181Z,9.88
2022-09-07T17:50:38.276Z,10.15
2022-09-07T17:53:10.335Z,11.18
2022-09-07T17:55:44.990Z,8.70
2022-09-07T17:58:16.966Z,8.77
2022-09-07T18:00:49.143Z,10.70
2022-09-07T18:03:21.962Z,15.43
2022-09-07T18:05:55.346Z,10.32
2022-09-07T18:08:28.093Z,11.63
2022-09-07T18:14:00.028Z,29.40
2022-09-07T18:16:34.201Z,19.63
2022-09-07T18:19:12.461Z,15.98
2022-09-07T18:21:44.479Z,15.80
2022-09-07T18:24:23.290Z,10.23
2022-09-07T18:26:55.690Z,12.70
2022-09-07T18:29:33.643Z,14.13
2022-09-07T18:32:12.664Z,13.23
2022-09-07T18:34:50.415Z,12.45
2022-09-07T18:37:23.410Z,14.73
2022-09-07T18:39:55.558Z,10.20
2022-09-07T18:42:29.169Z,10.88
2022-09-07T18:47:54.702Z,15.00
2022-09-07T18:50:26.901Z,19.02
2022-09-07T18:53:07.290Z,12.70
2022-09-07T18:55:47.905Z,12.82
2022-09-07T18:58:21.083Z,19.38
2022-09-07T19:00:58.264Z,14.00
2022-09-07T19:03:30.728Z,17.30
2022-09-07T19:06:09.726Z,16.13
2022-09-07T19:08:44.022Z,18.88
2022-09-07T19:11:19.544Z,15.65
2022-09-07T19:14:06.171Z,20.00
2022-09-07T19:16:38.837Z,16.38
2022-09-07T19:19:13.585Z,16.38
2022-09-07T19:21:45.987Z,15.35
2022-09-07T19:24:19.544Z,18.77
2022-09-07T19:26:51.487Z,17.10
2022-09-07T19:29:23.760Z,20.48
2022-09-07T19:32:04.729Z,19.55
2022-09-07T19:34:40.278Z,16.50
2022-09-07T19:37:13.463Z,16.20
2022-09-07T19:39:45.886Z,15.15
2022-09-07T19:42:17.860Z,15.45
2022-09-07T19:44:50.326Z,16.50
2022-09-07T19:47:23.558Z,15.55
2022-09-07T19:49:55.547Z,16.92
2022-09-07T19:52:27.850Z,15.13
2022-09-07T19:55:02.882Z,24.25
2022-09-07T19:57:35.651Z,14.20
2022-09-07T20:00:09.457Z,16.88
2022-09-07T20:02:41.499Z,18.63
2022-09-07T20:05:14.717Z,14.18
2022-09-07T20:07:46.866Z,30.80
2022-09-07T20:10:18.869Z,44.03
2022-09-07T20:12:50.919Z,22.00
2022-09-07T20:15:22.879Z,20.48
2022-09-07T20:17:55.058Z,16.40
2022-09-07T20:20:26.992Z,23.27
2022-09-07T20:22:58.917Z,20.88
2022-09-07T20:25:30.921Z,19.65
2022-09-07T20:28:03.174Z,16.70
2022-09-07T20:30:35.166Z,18.40
2022-09-07T20:33:07.060Z,17.42
2022-09-07T20:35:39.050Z,17.67
2022-09-07T20:38:11.570Z,14.52
2022-09-07T20:41:00.873Z,15.27
2022-09-07T20:43:32.866Z,17.40
2022-09-07T20:46:05.037Z,18.02
2022-09-07T20:48:38.019Z,17.83
2022-09-07T20:51:20.817Z,18.42
2022-09-07T20:53:53.584Z,16.35
2022-09-07T20:56:28.711Z,18.92
2022-09-07T20:59:02.991Z,14.45
2022-09-07T21:01:35.522Z,18.98
2022-09-07T21:04:07.612Z,23.17
2022-09-07T21:06:39.592Z,24.58
2022-09-07T21:09:11.526Z,19.98
2022-09-07T21:11:47.294Z,19.13
2022-09-07T21:14:21.791Z,19.27
2022-09-07T21:16:53.887Z,16.88
2022-09-07T21:19:29.161Z,19.98
2022-09-07T21:22:01.091Z,19.63
2022-09-07T21:24:33.293Z,24.30
2022-09-07T21:27:05.286Z,27.17
2022-09-07T21:29:37.275Z,23.90
2022-09-07T21:32:09.759Z,23.67
2022-09-07T21:34:41.819Z,22.80
2022-09-07T21:37:13.890Z,19.58
2022-09-07T21:39:45.862Z,24.13
2022-09-07T21:42:18.127Z,17.70
2022-09-07T21:44:50.033Z,20.67
2022-09-07T21:47:22.088Z,20.17
2022-09-07T21:49:54.017Z,20.25
2022-09-07T21:52:25.981Z,18.52
2022-09-07T21:54:58.003Z,20.15
2022-09-07T21:57:29.969Z,17.45
2022-09-07T22:00:02.341Z,19.48
2022-09-07T22:02:34.290Z,29.08
2022-09-07T22:05:06.358Z,24.60
2022-09-07T22:07:38.277Z,19.80
2022-09-07T22:10:10.544Z,20.92
2022-09-07T22:12:42.544Z,20.20
2022-09-07T22:15:14.533Z,20.75
2022-09-07T22:17:46.570Z,19.63
2022-09-07T22:20:18.566Z,20.92
2022-09-07T22:22:50.519Z,24.80
2022-09-07T22:25:22.419Z,24.50
2022-09-07T22:27:54.367Z,23.27
2022-09-07T22:30:26.656Z,22.05
2022-09-07T22:32:58.617Z,21.15
2022-09-07T22:35:30.553Z,19.52
2022-09-07T22:38:02.505Z,19.65
2022-09-07T22:40:34.454Z,20.67
2022-09-07T22:43:07.143Z,19.92
2022-09-07T22:45:39.130Z,23.38
2022-09-07T22:48:11.095Z,24.35
2022-09-07T22:50:42.995Z,25.42
2022-09-07T22:53:14.927Z,31.50
2022-09-07T22:55:46.840Z,21.35
2022-09-07T22:58:19.316Z,22.30
2022-09-07T23:00:52.893Z,22.15
2022-09-07T23:03:25.282Z,25.35
2022-09-07T23:05:57.580Z,20.48
2022-09-07T23:08:30.186Z,20.10
2022-09-07T23:11:05.293Z,23.00
2022-09-07T23:13:37.317Z,24.30
2022-09-07T23:16:10.092Z,22.45
2022-09-07T23:18:42.093Z,23.67
2022-09-07T23:21:14.325Z,20.92
2022-09-07T23:23:59.763Z,22.85
2022-09-07T23:26:32.900Z,18.60
2022-09-07T23:29:06.128Z,22.77
2022-09-07T23:31:38.370Z,22.30
2022-09-07T23:34:10.370Z,25.52
2022-09-07T23:36:42.295Z,26.35
2022-09-07T23:39:14.363Z,22.45
2022-09-07T23:41:46.286Z,31.35
2022-09-07T23:44:18.227Z,19.38
2022-09-07T23:46:50.258Z,21.75
2022-09-07T23:49:22.380Z,24.05
2022-09-07T23:51:54.479Z,26.70
2022-09-07T23:54:26.906Z,25.63
2022-09-07T23:56:58.799Z,25.95
2022-09-07T23:59:32.351Z,30.80
